Time;durP1;ratioP1;P1;durP2;ratioP2;P2;SDS_P1;SDS_P2;PMS_P1;PMS_P2;Temp;Humidity;BMP_temperature;BMP_pressure;BME280_temperature;BME280_humidity;BME280_pressure;Samples;Min_cycle;Max_cycle;Signal;HPM_P1;HPM_P2
2022/09/08 00:01:34;;;;;;;6.25;1.77;;;17.90;99.90;;;;;;5043860;28;20100;-66
2022/09/08 00:04:03;;;;;;;4.07;1.63;;;17.80;99.90;;;;;;5039678;28;20021;-65
2022/09/08 00:06:32;;;;;;;12.10;2.05;;;17.90;99.90;;;;;;5041689;28;20027;-66
2022/09/08 00:08:58;;;;;;;3.67;1.88;;;17.90;99.90;;;;;;5043833;28;20441;-66
2022/09/08 00:11:28;;;;;;;3.85;1.80;;;17.80;99.90;;;;;;5040161;28;20510;-66
2022/09/08 00:13:56;;;;;;;7.75;1.95;;;17.80;99.90;;;;;;5041516;28;20439;-66
2022/09/08 00:16:22;;;;;;;4.65;1.92;;;17.80;99.90;;;;;;5044254;28;20059;-66
2022/09/08 00:18:50;;;;;;;5.03;2.17;;;17.80;99.90;;;;;;5038297;28;20026;-67
2022/09/08 00:21:17;;;;;;;8.27;2.05;;;17.80;99.90;;;;;;5039940;28;20040;-67
2022/09/08 00:23:42;;;;;;;5.38;1.77;;;17.80;99.90;;;;;;5039744;28;20021;-65
2022/09/08 00:26:08;;;;;;;2.35;1.60;;;17.80;99.90;;;;;;5042332;28;20029;-66
2022/09/08 00:28:34;;;;;;;5.60;1.88;;;17.80;99.90;;;;;;5021555;28;20033;-66
2022/09/08 00:31:00;;;;;;;5.45;1.65;;;17.70;99.90;;;;;;5032578;28;20032;-65
2022/09/08 00:33:26;;;;;;;4.57;1.70;;;17.70;99.90;;;;;;5035916;28;20040;-65
2022/09/08 00:35:52;;;;;;;3.67;1.90;;;17.80;99.90;;;;;;5036037;28;20451;-65
2022/09/08 00:38:21;;;;;;;8.43;2.60;;;17.80;99.90;;;;;;5041043;28;20060;-65
2022/09/08 00:40:49;;;;;;;8.10;2.00;;;17.80;99.90;;;;;;5041600;28;20515;-66
2022/09/08 00:43:34;;;;;;;9.65;2.25;;;17.80;99.90;;;;;;5044642;28;20184;-66
2022/09/08 00:46:17;;;;;;;9.85;2.83;;;17.80;99.90;;;;;;5041323;28;20165;-67
2022/09/08 00:48:47;;;;;;;8.20;2.75;;;17.80;99.90;;;;;;5025929;28;20052;-66
2022/09/08 00:51:16;;;;;;;6.95;2.30;;;17.80;99.90;;;;;;5034355;28;20057;-67
2022/09/08 00:53:43;;;;;;;10.07;2.60;;;17.70;99.90;;;;;;5040171;28;20522;-67
2022/09/08 00:56:08;;;;;;;4.68;2.30;;;17.70;99.90;;;;;;5036271;28;20500;-67
2022/09/08 00:58:36;;;;;;;10.80;3.03;;;17.70;99.90;;;;;;5035688;28;20104;-67
2022/09/08 01:01:03;;;;;;;4.75;2.50;;;17.70;99.90;;;;;;5040168;28;20025;-67
2022/09/08 01:03:31;;;;;;;6.75;2.30;;;17.80;99.90;;;;;;5039393;28;20032;-67
2022/09/08 01:12:44;;;;;;;3.63;2.63;;;17.80;99.90;;;;;;5036778;28;20040;-65
2022/09/08 01:15:22;;;;;;;12.65;2.53;;;17.70;99.90;;;;;;5039141;28;20116;-65
2022/09/08 01:17:49;;;;;;;9.65;2.72;;;17.70;99.90;;;;;;5040389;28;20434;-65
2022/09/08 01:20:17;;;;;;;9.10;2.45;;;17.70;99.90;;;;;;5038174;28;20044;-65
2022/09/08 01:22:58;;;;;;;7.07;2.38;;;17.70;99.90;;;;;;5044223;28;20021;-65
2022/09/08 01:25:55;;;;;;;3.85;2.45;;;17.70;99.90;;;;;;5040171;28;20108;-65
2022/09/08 01:28:33;;;;;;;10.82;2.50;;;17.70;99.90;;;;;;5034289;28;20029;-65
2022/09/08 01:31:02;;;;;;;3.88;2.40;;;17.70;99.90;;;;;;5041376;28;20028;-65
2022/09/08 01:33:27;;;;;;;5.22;2.72;;;17.60;99.90;;;;;;5036739;28;20026;-65
2022/09/08 01:35:53;;;;;;;6.88;2.80;;;17.70;99.90;;;;;;5036455;28;20526;-65
2022/09/08 01:38:19;;;;;;;5.15;2.10;;;17.70;99.90;;;;;;5039578;28;20438;-66
2022/09/08 01:40:45;;;;;;;3.55;2.22;;;17.70;99.90;;;;;;5037673;28;20040;-66
2022/09/08 01:43:10;;;;;;;5.40;2.53;;;17.70;99.90;;;;;;5038711;28;20067;-65
2022/09/08 01:45:37;;;;;;;5.78;2.30;;;17.80;99.90;;;;;;5040039;28;20033;-66
2022/09/08 01:48:04;;;;;;;5.45;2.78;;;17.80;99.90;;;;;;5041450;28;20017;-65
2022/09/08 01:50:30;;;;;;;5.18;2.22;;;17.80;99.90;;;;;;5043343;28;20017;-66
2022/09/08 01:52:56;;;;;;;3.45;2.50;;;17.80;99.90;;;;;;5045337;28;20025;-66
2022/09/08 01:55:21;;;;;;;6.55;2.33;;;17.80;99.90;;;;;;5042856;28;20491;-66
2022/09/08 01:57:47;;;;;;;8.23;3.22;;;17.80;99.90;;;;;;5042621;28;20025;-66
2022/09/08 02:00:13;;;;;;;4.57;2.47;;;17.80;99.90;;;;;;5047780;28;21026;-65
2022/09/08 02:02:38;;;;;;;3.70;2.25;;;17.90;99.90;;;;;;5045019;28;20544;-66
2022/09/08 02:05:05;;;;;;;4.97;2.42;;;17.90;99.90;;;;;;5045283;28;20035;-66
2022/09/08 02:07:36;;;;;;;6.22;2.47;;;17.90;99.90;;;;;;5041130;28;20081;-66
2022/09/08 02:10:02;;;;;;;7.07;2.78;;;17.90;99.90;;;;;;5039865;28;20030;-65
2022/09/08 02:12:28;;;;;;;10.00;3.13;;;17.90;99.90;;;;;;5036486;28;20548;-66
2022/09/08 02:14:54;;;;;;;3.90;2.72;;;17.90;99.90;;;;;;5040074;28;20063;-66
2022/09/08 02:17:19;;;;;;;10.63;2.70;;;17.80;99.90;;;;;;5042479;28;20028;-65
2022/09/08 02:19:45;;;;;;;3.33;2.83;;;17.80;99.90;;;;;;5041269;28;20063;-66
2022/09/08 02:22:11;;;;;;;6.03;3.75;;;17.70;99.90;;;;;;5040394;28;20022;-65
2022/09/08 02:24:37;;;;;;;13.63;3.20;;;17.70;99.90;;;;;;5035411;28;20439;-65
2022/09/08 02:27:02;;;;;;;7.82;3.42;;;17.70;99.90;;;;;;5042537;28;20021;-65
2022/09/08 02:29:28;;;;;;;4.13;3.20;;;17.70;99.90;;;;;;5045497;28;20036;-65
2022/09/08 02:31:54;;;;;;;8.82;3.45;;;17.70;99.90;;;;;;5039237;28;20054;-65
2022/09/08 02:34:20;;;;;;;4.90;2.80;;;17.50;99.90;;;;;;5043161;28;20029;-65
2022/09/08 02:36:46;;;;;;;11.70;3.22;;;17.50;99.90;;;;;;5043257;28;20025;-64
2022/09/08 02:39:16;;;;;;;7.53;3.35;;;17.60;99.90;;;;;;5039648;28;20056;-65
2022/09/08 02:41:42;;;;;;;12.23;3.95;;;17.50;99.90;;;;;;5039774;28;20399;-65
2022/09/08 02:44:11;;;;;;;5.22;3.38;;;17.50;99.90;;;;;;5042035;28;20029;-65
2022/09/08 02:46:37;;;;;;;9.32;3.97;;;17.40;99.90;;;;;;5035394;28;20022;-65
2022/09/08 02:49:03;;;;;;;11.82;5.65;;;17.40;99.90;;;;;;5034399;28;20529;-65
2022/09/08 02:51:28;;;;;;;8.90;4.90;;;17.40;99.90;;;;;;5034691;28;20036;-65
2022/09/08 02:53:55;;;;;;;14.75;5.03;;;17.50;99.90;;;;;;5034038;28;20028;-65
2022/09/08 02:56:20;;;;;;;9.40;5.30;;;17.60;99.90;;;;;;5036193;28;20541;-66
2022/09/08 02:58:46;;;;;;;6.97;5.30;;;17.60;99.90;;;;;;5035747;28;20037;-65
2022/09/08 03:01:11;;;;;;;12.98;7.35;;;17.70;99.90;;;;;;5035233;28;20160;-66
2022/09/08 03:03:37;;;;;;;16.75;7.72;;;17.70;99.90;;;;;;5033301;28;20043;-65
2022/09/08 03:06:04;;;;;;;17.25;7.90;;;17.60;99.90;;;;;;5033877;28;20033;-66
2022/09/08 03:08:30;;;;;;;17.73;8.27;;;17.60;99.90;;;;;;5034596;28;20028;-66
2022/09/08 03:10:56;;;;;;;16.92;8.77;;;17.50;99.90;;;;;;5031804;28;20033;-66
2022/09/08 03:13:22;;;;;;;13.43;9.45;;;17.50;99.90;;;;;;5033549;28;20069;-66
2022/09/08 03:15:49;;;;;;;23.92;9.23;;;17.50;99.90;;;;;;5034112;28;20032;-67
2022/09/08 03:18:14;;;;;;;17.23;9.00;;;17.50;99.90;;;;;;5033807;28;20052;-67
2022/09/08 03:20:41;;;;;;;19.02;9.98;;;17.50;99.90;;;;;;5033005;28;20889;-67
2022/09/08 03:23:08;;;;;;;15.52;9.27;;;17.50;99.90;;;;;;5033367;28;20025;-68
2022/09/08 03:25:36;;;;;;;18.70;9.65;;;17.50;99.90;;;;;;5030122;28;20055;-67
2022/09/08 03:28:05;;;;;;;17.48;10.48;;;17.50;99.90;;;;;;5036443;28;20029;-67
2022/09/08 03:30:31;;;;;;;17.10;10.90;;;17.50;99.90;;;;;;5046599;28;20084;-67
2022/09/08 03:32:57;;;;;;;14.60;8.32;;;17.40;99.90;;;;;;5041771;28;20040;-67
2022/09/08 03:35:23;;;;;;;13.07;8.30;;;17.50;99.90;;;;;;5042711;28;20024;-66
2022/09/08 03:37:48;;;;;;;21.88;9.35;;;17.40;99.90;;;;;;5040150;28;20033;-67
2022/09/08 03:40:16;;;;;;;16.58;9.50;;;17.30;99.90;;;;;;5037379;28;20043;-67
2022/09/08 03:42:43;;;;;;;17.77;8.70;;;17.30;99.90;;;;;;5036535;28;20029;-67
2022/09/08 03:45:15;;;;;;;20.58;11.43;;;17.30;99.90;;;;;;5041148;28;20021;-66
2022/09/08 03:47:42;;;;;;;17.05;10.02;;;17.30;99.90;;;;;;5041577;28;20074;-67
2022/09/08 03:50:09;;;;;;;14.85;9.43;;;17.30;99.90;;;;;;5039724;28;20510;-67
2022/09/08 03:52:35;;;;;;;15.60;10.00;;;17.30;99.90;;;;;;5041775;28;20048;-67
2022/09/08 03:55:00;;;;;;;24.88;9.60;;;17.30;99.90;;;;;;5038775;28;20033;-67
2022/09/08 03:57:28;;;;;;;18.52;8.90;;;17.30;99.90;;;;;;5038806;28;20037;-67
2022/09/08 03:59:56;;;;;;;14.25;8.05;;;17.30;99.90;;;;;;5043373;28;20033;-67
2022/09/08 04:02:22;;;;;;;17.30;8.32;;;17.20;99.90;;;;;;5040715;28;20148;-67
2022/09/08 04:04:53;;;;;;;13.18;7.07;;;17.20;99.90;;;;;;5034291;28;20032;-67
2022/09/08 04:07:20;;;;;;;13.68;7.97;;;17.20;99.90;;;;;;5034672;28;20032;-67
2022/09/08 04:09:46;;;;;;;17.63;7.78;;;17.20;99.90;;;;;;5018781;28;20116;-68
2022/09/08 04:12:14;;;;;;;11.88;7.50;;;17.20;99.90;;;;;;5037730;28;20029;-68
2022/09/08 04:14:40;;;;;;;12.85;7.07;;;17.30;99.90;;;;;;5036262;28;20025;-65
2022/09/08 04:17:06;;;;;;;11.10;7.30;;;17.20;99.90;;;;;;5038552;28;20557;-66
2022/09/08 04:19:32;;;;;;;13.00;6.60;;;17.20;99.90;;;;;;5035511;28;20033;-66
2022/09/08 04:21:58;;;;;;;17.73;6.47;;;17.30;99.90;;;;;;5033661;28;20095;-67
2022/09/08 04:24:24;;;;;;;16.33;6.78;;;17.30;99.90;;;;;;5034475;28;20021;-65
2022/09/08 04:26:50;;;;;;;21.15;7.47;;;17.30;99.90;;;;;;5031622;28;20040;-66
2022/09/08 04:29:16;;;;;;;14.38;7.43;;;17.30;99.90;;;;;;5030913;28;20029;-66
2022/09/08 04:31:42;;;;;;;14.68;7.10;;;17.30;99.90;;;;;;5033662;28;20048;-66
2022/09/08 04:34:08;;;;;;;13.75;6.07;;;17.20;99.90;;;;;;5037659;28;20047;-67
2022/09/08 04:36:34;;;;;;;16.00;7.40;;;17.20;99.90;;;;;;5040943;28;20029;-66
2022/09/08 04:39:00;;;;;;;12.90;7.63;;;17.20;99.90;;;;;;5037737;28;20044;-66
2022/09/08 04:41:28;;;;;;;13.73;6.15;;;17.20;99.90;;;;;;5038526;28;20024;-67
2022/09/08 04:43:55;;;;;;;12.75;6.80;;;17.20;99.90;;;;;;5035949;28;20021;-66
2022/09/08 04:46:21;;;;;;;14.15;7.47;;;17.10;99.90;;;;;;5037227;28;20083;-66
2022/09/08 04:48:47;;;;;;;14.30;6.90;;;17.10;99.90;;;;;;5033535;28;20033;-67
2022/09/08 04:51:16;;;;;;;17.17;6.90;;;17.10;99.90;;;;;;5038533;28;20029;-66
2022/09/08 04:53:42;;;;;;;15.82;6.57;;;17.20;99.90;;;;;;5035857;28;20017;-66
2022/09/08 04:56:09;;;;;;;11.43;6.72;;;17.10;99.90;;;;;;5038693;28;20021;-66
2022/09/08 04:58:37;;;;;;;18.13;6.85;;;17.20;99.90;;;;;;5037646;28;20029;-59
2022/09/08 05:01:08;;;;;;;17.90;6.75;;;17.20;99.90;;;;;;5036105;28;20391;-59
2022/09/08 05:03:34;;;;;;;15.30;6.60;;;17.10;99.90;;;;;;5036105;28;20448;-58
2022/09/08 05:06:18;;;;;;;13.70;7.20;;;17.20;99.90;;;;;;5038947;28;20056;-58
2022/09/08 05:08:45;;;;;;;18.55;6.40;;;17.20;99.90;;;;;;5035112;28;20060;-57
2022/09/08 05:11:12;;;;;;;15.75;6.47;;;17.20;99.90;;;;;;5022304;28;20562;-58
2022/09/08 05:13:38;;;;;;;8.85;5.90;;;17.20;99.90;;;;;;5043544;28;20025;-59
2022/09/08 05:16:11;;;;;;;14.70;6.60;;;17.20;99.90;;;;;;5039642;28;20430;-59
2022/09/08 05:18:37;;;;;;;8.02;4.57;;;17.20;99.90;;;;;;5036576;28;20487;-58
2022/09/08 05:21:04;;;;;;;7.57;5.13;;;17.10;99.90;;;;;;5035739;28;20087;-59
2022/09/08 05:23:30;;;;;;;9.35;5.35;;;17.10;99.90;;;;;;5038126;28;20041;-57
2022/09/08 05:26:01;;;;;;;5.82;4.25;;;17.10;99.90;;;;;;5034688;28;20050;-53
2022/09/08 05:28:30;;;;;;;13.98;5.78;;;17.10;99.90;;;;;;5040501;28;20033;-55
2022/09/08 05:30:57;;;;;;;9.40;4.75;;;17.10;99.90;;;;;;5039732;28;20032;-54
2022/09/08 05:33:23;;;;;;;13.80;5.63;;;17.10;99.90;;;;;;5032683;28;20034;-58
2022/09/08 05:35:49;;;;;;;12.48;4.78;;;17.10;99.90;;;;;;5038697;28;20056;-59
2022/09/08 05:38:15;;;;;;;14.18;5.60;;;17.10;99.90;;;;;;5044688;28;20112;-57
2022/09/08 05:40:41;;;;;;;10.20;6.40;;;17.10;99.90;;;;;;5034911;28;20145;-56
2022/09/08 05:43:07;;;;;;;18.80;7.53;;;17.10;99.90;;;;;;5050072;28;20040;-57
2022/09/08 05:45:33;;;;;;;16.42;8.93;;;17.10;99.90;;;;;;5045045;28;20037;-56
2022/09/08 05:47:58;;;;;;;18.05;8.55;;;17.10;99.90;;;;;;5046061;28;20853;-58
2022/09/08 05:50:24;;;;;;;14.20;9.13;;;17.10;99.90;;;;;;5040034;28;20025;-57
2022/09/08 05:52:49;;;;;;;16.52;8.32;;;17.10;99.90;;;;;;5032501;28;20163;-57
2022/09/08 05:55:15;;;;;;;18.02;8.98;;;17.10;99.90;;;;;;5042126;28;20528;-58
2022/09/08 05:57:41;;;;;;;14.27;7.40;;;17.10;99.90;;;;;;5038822;28;20027;-57
2022/09/08 06:00:08;;;;;;;17.05;7.75;;;17.00;99.90;;;;;;5034070;28;20065;-57
2022/09/08 06:02:34;;;;;;;19.55;8.18;;;17.10;99.90;;;;;;5037953;28;20443;-58
2022/09/08 06:05:00;;;;;;;10.70;6.03;;;17.10;99.90;;;;;;5041132;28;20013;-57
2022/09/08 06:07:26;;;;;;;13.55;6.55;;;17.00;99.90;;;;;;5043127;28;20025;-57
2022/09/08 06:09:52;;;;;;;10.80;5.93;;;17.00;99.90;;;;;;5037163;28;20108;-57
2022/09/08 06:12:18;;;;;;;10.85;5.13;;;17.00;99.90;;;;;;5028700;28;20121;-56
2022/09/08 06:14:44;;;;;;;12.43;5.65;;;17.00;99.90;;;;;;5048396;28;20553;-56
2022/09/08 06:17:10;;;;;;;7.68;4.72;;;17.00;99.90;;;;;;5042713;28;20649;-56
2022/09/08 06:19:36;;;;;;;11.25;5.43;;;17.00;99.90;;;;;;5045077;28;20079;-56
2022/09/08 06:22:02;;;;;;;15.75;5.95;;;17.00;99.90;;;;;;5047761;28;20521;-56
2022/09/08 06:24:27;;;;;;;9.93;5.78;;;17.00;99.90;;;;;;5050139;28;20553;-57
2022/09/08 06:27:14;;;;;;;10.77;5.57;;;17.00;99.90;;;;;;5049771;28;20448;-55
2022/09/08 06:29:59;;;;;;;9.93;4.70;;;17.00;99.90;;;;;;5044342;28;20029;-57
2022/09/08 06:32:33;;;;;;;11.75;6.65;;;17.00;99.90;;;;;;5036306;28;20049;-56
2022/09/08 06:35:17;;;;;;;11.10;6.00;;;17.00;99.90;;;;;;5032831;28;20103;-57
2022/09/08 06:37:54;;;;;;;9.43;5.57;;;17.00;99.90;;;;;;5041218;28;20057;-53
2022/09/08 06:40:32;;;;;;;9.07;5.30;;;17.10;99.90;;;;;;5046999;28;20065;-54
2022/09/08 06:43:11;;;;;;;10.75;5.95;;;17.00;99.90;;;;;;5046008;28;20633;-53
2022/09/08 06:45:41;;;;;;;12.30;6.45;;;17.10;99.90;;;;;;5045410;28;20036;-56
2022/09/08 06:48:23;;;;;;;18.35;8.75;;;17.10;99.90;;;;;;5050229;28;20025;-58
2022/09/08 06:51:12;;;;;;;16.75;9.27;;;17.10;99.90;;;;;;5040613;28;20028;-55
2022/09/08 06:53:43;;;;;;;21.08;8.35;;;17.00;99.90;;;;;;5045014;28;20063;-57
2022/09/08 06:56:20;;;;;;;16.15;7.72;;;17.00;99.90;;;;;;5051233;28;20025;-60
2022/09/08 06:58:46;;;;;;;16.98;6.88;;;17.10;99.90;;;;;;5048094;28;20033;-56
2022/09/08 07:01:26;;;;;;;19.77;7.35;;;17.10;99.90;;;;;;5043127;28;20060;-57
2022/09/08 07:04:02;;;;;;;13.07;6.50;;;17.00;99.90;;;;;;5037396;28;20075;-56
2022/09/08 07:06:40;;;;;;;18.90;7.38;;;17.10;99.90;;;;;;5033791;28;20479;-55
2022/09/08 07:09:33;;;;;;;16.05;7.70;;;17.20;99.90;;;;;;5046112;28;20043;-55
2022/09/08 07:12:26;;;;;;;19.35;8.68;;;17.10;99.90;;;;;;5040054;28;20372;-52
2022/09/08 07:15:15;;;;;;;15.38;8.45;;;17.10;99.90;;;;;;5032307;28;20029;-54
2022/09/08 07:18:03;;;;;;;18.88;8.80;;;17.10;99.90;;;;;;5043766;28;20414;-55
2022/09/08 07:20:30;;;;;;;19.13;8.45;;;17.00;99.90;;;;;;5043444;28;20104;-53
2022/09/08 07:23:16;;;;;;;18.95;8.32;;;17.00;99.90;;;;;;5031699;28;20037;-55
2022/09/08 07:25:47;;;;;;;14.40;6.82;;;17.00;99.90;;;;;;5031192;28;20503;-55
2022/09/08 07:28:18;;;;;;;15.15;8.70;;;16.90;99.90;;;;;;5044302;28;20239;-57
2022/09/08 07:30:52;;;;;;;18.25;7.55;;;16.80;99.90;;;;;;5038683;28;20384;-56
2022/09/08 07:33:30;;;;;;;14.65;7.72;;;16.90;99.90;;;;;;5048326;28;20392;-55
2022/09/08 07:36:13;;;;;;;15.13;7.88;;;16.80;99.90;;;;;;5044867;28;20067;-57
2022/09/08 07:38:56;;;;;;;11.27;5.82;;;16.90;99.90;;;;;;5043114;28;20037;-58
2022/09/08 07:42:02;;;;;;;14.10;5.53;;;16.90;99.90;;;;;;5046687;28;20020;-57
2022/09/08 07:44:27;;;;;;;9.93;4.00;;;17.00;99.90;;;;;;5038633;28;20132;-60
2022/09/08 07:47:25;;;;;;;9.07;3.95;;;16.90;99.90;;;;;;5048621;28;20108;-57
2022/09/08 07:50:15;;;;;;;5.05;2.70;;;17.00;99.90;;;;;;5041754;28;20045;-54
2022/09/08 07:53:00;;;;;;;6.63;3.33;;;16.90;99.90;;;;;;5038801;28;20030;-57
2022/09/08 07:55:43;;;;;;;3.22;2.00;;;17.00;99.90;;;;;;5035363;28;20032;-53
2022/09/08 07:58:21;;;;;;;3.88;2.00;;;17.10;99.90;;;;;;5036519;28;20021;-58
2022/09/08 08:01:12;;;;;;;3.25;1.73;;;17.10;99.90;;;;;;5040948;28;20025;-58
2022/09/08 08:04:15;;;;;;;1.90;1.42;;;17.10;99.90;;;;;;5039757;28;20625;-55
2022/09/08 08:06:52;;;;;;;6.10;1.60;;;17.20;99.90;;;;;;5022112;28;20028;-56
2022/09/08 08:09:29;;;;;;;2.70;1.60;;;17.10;99.90;;;;;;5041231;28;20017;-57
2022/09/08 08:12:01;;;;;;;4.93;1.70;;;17.10;99.90;;;;;;5036656;28;20039;-58
2022/09/08 08:14:36;;;;;;;3.92;2.05;;;17.20;99.90;;;;;;5045934;28;20495;-57
2022/09/08 08:17:14;;;;;;;3.33;2.65;;;17.20;99.90;;;;;;5042719;28;20041;-57
2022/09/08 08:20:19;;;;;;;2.20;1.67;;;17.20;99.90;;;;;;5042559;28;20029;-58
2022/09/08 08:23:10;;;;;;;4.00;2.17;;;17.20;99.90;;;;;;5056072;22;20051;-57
2022/09/08 08:26:15;;;;;;;6.78;3.05;;;17.20;99.90;;;;;;5042057;28;20078;-56
2022/09/08 08:28:43;;;;;;;6.75;3.08;;;17.20;99.90;;;;;;5046191;28;20025;-57
2022/09/08 08:31:28;;;;;;;6.90;2.78;;;17.30;99.90;;;;;;5043916;28;20104;-59
2022/09/08 08:34:04;;;;;;;;;;;17.30;99.90;;;;;;5031807;28;20025;-57
2022/09/08 08:36:32;;;;;;;8.05;3.80;;;17.40;99.90;;;;;;5024386;28;19955;-57
2022/09/08 08:39:17;;;;;;;6.65;3.17;;;17.50;99.90;;;;;;5024414;28;20034;-58
2022/09/08 08:42:03;;;;;;;7.78;2.88;;;17.50;99.90;;;;;;5024320;28;20147;-56
2022/09/08 08:44:48;;;;;;;9.38;3.20;;;17.60;99.90;;;;;;5021561;28;20389;-58
2022/09/08 08:47:31;;;;;;;10.15;3.13;;;17.60;99.90;;;;;;5023603;28;20022;-58
2022/09/08 08:50:08;;;;;;;6.40;2.90;;;17.70;99.90;;;;;;5023444;28;20117;-57
2022/09/08 08:53:03;;;;;;;6.78;2.50;;;17.70;99.90;;;;;;5023601;28;20022;-59
2022/09/08 08:55:49;;;;;;;5.40;1.80;;;17.80;99.90;;;;;;5022235;28;20044;-55
2022/09/08 08:58:43;;;;;;;5.60;2.22;;;17.90;99.90;;;;;;5024196;28;20048;-56
2022/09/08 09:01:38;;;;;;;4.28;1.63;;;18.00;99.90;;;;;;5023777;28;20044;-58
2022/09/08 09:04:32;;;;;;;6.15;2.40;;;18.20;99.90;;;;;;5018032;28;20151;-59
2022/09/08 09:07:25;;;;;;;7.07;1.80;;;18.30;99.90;;;;;;5024417;28;20026;-55
2022/09/08 09:09:50;;;;;;;6.25;1.80;;;18.20;99.90;;;;;;5024328;28;20136;-58
2022/09/08 09:12:28;;;;;;;3.22;1.27;;;18.20;99.90;;;;;;5027710;28;20567;-58
2022/09/08 09:15:32;;;;;;;4.35;0.90;;;18.10;99.90;;;;;;5023027;28;20503;-59
2022/09/08 09:18:07;;;;;;;10.27;0.98;;;18.00;99.90;;;;;;5025696;28;20114;-59
2022/09/08 09:20:50;;;;;;;1.42;0.98;;;17.90;99.90;;;;;;5033383;28;20021;-58
2022/09/08 09:23:24;;;;;;;5.57;1.08;;;17.90;99.90;;;;;;5031351;28;20493;-59
2022/09/08 09:26:02;;;;;;;2.85;0.70;;;17.80;99.90;;;;;;5028771;28;20021;-57
2022/09/08 09:28:39;;;;;;;2.47;0.98;;;17.90;99.90;;;;;;5034969;28;20022;-58
2022/09/08 09:31:20;;;;;;;3.60;1.00;;;18.00;99.90;;;;;;5034804;28;20026;-59
2022/09/08 09:34:06;;;;;;;3.83;0.95;;;18.00;99.90;;;;;;5033820;28;20060;-58
2022/09/08 09:37:02;;;;;;;8.27;0.82;;;18.00;99.90;;;;;;5032392;28;20033;-57
2022/09/08 09:39:49;;;;;;;5.95;1.40;;;18.10;99.90;;;;;;5032211;28;20029;-56
2022/09/08 09:42:36;;;;;;;2.70;0.77;;;18.20;99.90;;;;;;5034563;28;20476;-58
2022/09/08 09:45:13;;;;;;;2.92;0.90;;;18.30;99.90;;;;;;5034412;28;20376;-56
2022/09/08 09:48:05;;;;;;;3.00;0.70;;;18.40;99.90;;;;;;5034420;28;20095;-57
2022/09/08 09:50:41;;;;;;;4.22;0.82;;;18.70;99.90;;;;;;5033242;28;20401;-58
2022/09/08 09:53:20;;;;;;;2.60;0.70;;;18.80;99.90;;;;;;5034417;28;20108;-59
2022/09/08 09:56:04;;;;;;;2.22;0.85;;;18.90;99.90;;;;;;5033996;28;20063;-57
2022/09/08 09:59:04;;;;;;;4.30;1.05;;;19.10;99.90;;;;;;5034120;28;20037;-58
2022/09/08 10:01:56;;;;;;;0.98;0.52;;;19.20;99.90;;;;;;5034313;28;20022;-57
2022/09/08 10:05:05;;;;;;;1.50;0.55;;;19.10;99.90;;;;;;5033257;28;20092;-58
2022/09/08 10:07:45;;;;;;;2.88;0.90;;;19.20;99.90;;;;;;5031222;28;20445;-58
2022/09/08 10:10:30;;;;;;;3.67;0.65;;;19.20;99.90;;;;;;5034156;28;20029;-58
2022/09/08 10:13:40;;;;;;;1.88;0.70;;;19.00;99.90;;;;;;5031857;28;20040;-59
2022/09/08 10:16:30;;;;;;;3.40;0.80;;;19.10;99.90;;;;;;5033711;28;20072;-58
2022/09/08 10:19:22;;;;;;;6.25;0.90;;;19.20;99.90;;;;;;5027341;28;20054;-57
2022/09/08 10:22:07;;;;;;;4.03;0.63;;;19.30;99.90;;;;;;5031328;28;20128;-55
2022/09/08 10:25:10;;;;;;;3.63;0.70;;;19.40;99.90;;;;;;5033315;28;20033;-58
2022/09/08 10:27:54;;;;;;;1.65;0.50;;;19.30;99.90;;;;;;5032735;28;20048;-58
2022/09/08 10:31:02;;;;;;;2.47;0.70;;;19.40;99.90;;;;;;5033910;28;20026;-58
2022/09/08 10:33:52;;;;;;;1.75;1.42;;;19.50;99.90;;;;;;5033658;28;20395;-56
2022/09/08 10:36:24;;;;;;;2.33;0.80;;;19.60;99.90;;;;;;5031248;28;20030;-58
2022/09/08 10:38:58;;;;;;;4.20;1.00;;;19.90;99.90;;;;;;5033623;28;20048;-59
2022/09/08 10:41:53;;;;;;;3.17;0.52;;;19.90;99.90;;;;;;5033831;28;20024;-57
2022/09/08 10:44:37;;;;;;;;;;;20.20;99.90;;;;;;5032892;28;20033;-59
2022/09/08 10:47:18;;;;;;;3.33;0.60;;;20.40;99.90;;;;;;5033599;28;19973;-57
2022/09/08 10:50:06;;;;;;;1.40;0.45;;;20.30;99.90;;;;;;5032757;28;20026;-56
2022/09/08 10:52:49;;;;;;;2.08;0.75;;;20.30;99.90;;;;;;5033362;28;20029;-55
2022/09/08 10:55:46;;;;;;;0.63;0.40;;;20.70;99.90;;;;;;5030919;28;20167;-58
2022/09/08 10:58:50;;;;;;;1.05;0.40;;;21.10;99.90;;;;;;5031927;28;20041;-54
2022/09/08 11:01:21;;;;;;;2.83;0.40;;;21.60;99.90;;;;;;5033110;28;20033;-54
2022/09/08 11:04:29;;;;;;;0.73;0.35;;;21.40;99.90;;;;;;5033282;28;20113;-55
2022/09/08 11:07:11;;;;;;;0.95;0.30;;;21.20;99.90;;;;;;5033103;28;20056;-55
2022/09/08 11:10:12;;;;;;;1.15;0.63;;;20.80;99.90;;;;;;5033042;28;20033;-55
2022/09/08 11:12:59;;;;;;;2.60;0.43;;;21.00;99.90;;;;;;5033059;28;20034;-55
2022/09/08 11:15:52;;;;;;;1.70;0.40;;;21.60;99.90;;;;;;5031514;28;20057;-55
2022/09/08 11:18:32;;;;;;;2.40;0.40;;;21.90;99.90;;;;;;5032873;28;20033;-58
2022/09/08 11:21:07;;;;;;;1.02;0.40;;;21.60;99.90;;;;;;5030931;28;20022;-55
2022/09/08 11:23:57;;;;;;;0.47;0.38;;;21.40;99.90;;;;;;5032539;28;20064;-58
2022/09/08 11:26:35;;;;;;;3.80;0.57;;;21.30;99.90;;;;;;5031943;28;20507;-57
2022/09/08 11:29:11;;;;;;;1.45;0.40;;;20.90;99.90;;;;;;5030210;28;20035;-57
2022/09/08 11:31:55;;;;;;;0.85;0.38;;;20.90;99.90;;;;;;5031986;28;20025;-57
2022/09/08 11:34:42;;;;;;;4.57;0.57;;;20.80;99.90;;;;;;5018715;28;20026;-57
2022/09/08 11:37:35;;;;;;;2.92;0.57;;;20.60;99.90;;;;;;5024994;28;20037;-58
2022/09/08 11:40:38;;;;;;;1.80;0.60;;;20.20;99.90;;;;;;5020175;28;20366;-55
2022/09/08 11:43:42;;;;;;;2.28;0.70;;;19.40;99.90;;;;;;5022063;28;20050;-58
2022/09/08 11:46:15;;;;;;;7.00;0.73;;;18.90;99.90;;;;;;5001740;28;20037;-58
2022/09/08 11:48:49;;;;;;;2.50;0.65;;;18.40;99.90;;;;;;5023675;28;20511;-57
2022/09/08 11:51:33;;;;;;;2.83;0.60;;;18.40;99.90;;;;;;5020956;28;20039;-57
2022/09/08 11:54:20;;;;;;;2.67;0.53;;;18.30;99.90;;;;;;5027016;28;20030;-55
2022/09/08 11:57:14;;;;;;;2.15;0.65;;;18.20;99.90;;;;;;5023279;28;20337;-58
2022/09/08 11:59:59;;;;;;;4.37;0.83;;;18.40;99.90;;;;;;5017928;28;20625;-58
2022/09/08 12:02:46;;;;;;;1.02;0.60;;;19.00;99.90;;;;;;5020761;28;20035;-58
2022/09/08 12:05:29;;;;;;;3.10;0.80;;;19.30;99.90;;;;;;5016296;28;20108;-58
2022/09/08 12:08:04;;;;;;;3.83;0.88;;;19.40;99.90;;;;;;5021708;28;20025;-56
2022/09/08 12:10:32;;;;;;;;;;;19.50;99.90;;;;;;5020268;28;20049;-55
2022/09/08 12:13:14;;;;;;;2.28;0.80;;;19.70;99.90;;;;;;5000444;28;20580;-58
2022/09/08 12:16:02;;;;;;;1.17;0.77;;;20.10;99.90;;;;;;5015393;28;20022;-57
2022/09/08 12:18:52;;;;;;;3.13;0.68;;;20.30;99.90;;;;;;5018461;28;20029;-54
2022/09/08 12:21:27;;;;;;;2.65;0.77;;;20.50;99.90;;;;;;5020518;28;20026;-57
2022/09/08 12:23:55;;;;;;;;;;;20.40;99.90;;;;;;5017198;28;20035;-55
2022/09/08 12:26:44;;;;;;;0.95;0.60;;;20.30;99.90;;;;;;5018213;28;19912;-55
2022/09/08 12:29:22;;;;;;;2.63;0.70;;;20.10;99.90;;;;;;5021808;28;20036;-57
2022/09/08 12:32:07;;;;;;;0.70;0.50;;;20.30;99.90;;;;;;5020717;28;20109;-58
2022/09/08 12:35:12;;;;;;;3.00;0.60;;;20.90;99.90;;;;;;5017337;28;20033;-57
2022/09/08 12:37:44;;;;;;;1.50;0.50;;;21.10;99.90;;;;;;5018322;28;20040;-57
2022/09/08 12:40:53;;;;;;;4.95;0.70;;;21.60;99.90;;;;;;5023430;28;20025;-58
2022/09/08 12:43:33;;;;;;;1.38;0.40;;;22.00;99.90;;;;;;4956035;28;20038;-58
2022/09/08 12:46:13;;;;;;;1.75;0.73;;;22.20;99.90;;;;;;5011314;28;20079;-56
2022/09/08 12:49:08;;;;;;;3.25;0.75;;;22.40;99.90;;;;;;5024073;28;20877;-56
2022/09/08 12:51:35;;;;;;;3.38;0.60;;;22.70;99.90;;;;;;5017968;28;20045;-57
2022/09/08 12:54:23;;;;;;;1.73;0.60;;;22.70;99.90;;;;;;5023840;28;20048;-58
2022/09/08 12:57:15;;;;;;;1.30;0.77;;;22.90;99.90;;;;;;5025025;28;20027;-58
2022/09/08 13:00:05;;;;;;;1.58;0.60;;;23.20;99.90;;;;;;5026694;28;20029;-57
2022/09/08 13:02:53;;;;;;;2.60;0.52;;;23.30;99.90;;;;;;5019227;28;20018;-58
2022/09/08 13:05:18;;;;;;;1.42;0.60;;;23.70;99.90;;;;;;5022908;28;20022;-54
2022/09/08 13:08:01;;;;;;;3.15;0.40;;;23.90;99.90;;;;;;5024023;28;20026;-56
2022/09/08 13:10:39;;;;;;;2.70;0.65;;;23.80;99.90;;;;;;5029488;28;20029;-57
2022/09/08 13:13:31;;;;;;;2.78;0.40;;;23.70;99.90;;;;;;5020626;28;20567;-57
2022/09/08 13:16:18;;;;;;;3.92;0.60;;;23.10;99.90;;;;;;5022630;28;20071;-55
2022/09/08 13:19:03;;;;;;;3.00;0.40;;;22.80;99.90;;;;;;5024169;28;20041;-56
2022/09/08 13:21:37;;;;;;;1.17;0.45;;;22.90;99.90;;;;;;5021976;28;20088;-56
2022/09/08 13:24:09;;;;;;;;;;;23.30;99.90;;;;;;5025497;28;20033;-57
2022/09/08 13:26:48;;;;;;;1.88;0.50;;;23.50;99.90;;;;;;5027662;28;19909;-57
2022/09/08 13:29:19;;;;;;;2.55;0.40;;;24.00;99.90;;;;;;5027185;28;20029;-56
2022/09/08 13:32:07;;;;;;;2.13;0.40;;;23.90;99.90;;;;;;5027916;28;20134;-55
2022/09/08 13:35:18;;;;;;;0.98;0.32;;;23.60;99.90;;;;;;5029073;28;20120;-53